sensor_id;sensor_type;location;lat;lon;timestamp;temperature;humidity
31677;DHT22;18385;51.572;6.578;2022-07-29T00:02:09;22.80;38.30
31677;DHT22;18385;51.572;6.578;2022-07-29T00:04:35;22.80;38.30
31677;DHT22;18385;51.572;6.578;2022-07-29T00:07:01;22.80;38.30
31677;DHT22;18385;51.572;6.578;2022-07-29T00:09:27;22.80;38.40
31677;DHT22;18385;51.572;6.578;2022-07-29T00:11:53;22.80;38.50
31677;DHT22;18385;51.572;6.578;2022-07-29T00:14:21;22.70;38.50
31677;DHT22;18385;51.572;6.578;2022-07-29T00:16:47;22.80;38.50
31677;DHT22;18385;51.572;6.578;2022-07-29T00:19:12;22.70;38.60
31677;DHT22;18385;51.572;6.578;2022-07-29T00:21:38;22.70;38.60
31677;DHT22;18385;51.572;6.578;2022-07-29T00:24:04;22.70;38.70
31677;DHT22;18385;51.572;6.578;2022-07-29T00:26:29;22.70;38.80
31677;DHT22;18385;51.572;6.578;2022-07-29T00:28:58;22.70;38.70
31677;DHT22;18385;51.572;6.578;2022-07-29T00:31:24;22.70;38.90
31677;DHT22;18385;51.572;6.578;2022-07-29T00:33:50;22.70;38.80
31677;DHT22;18385;51.572;6.578;2022-07-29T00:36:15;22.60;38.80
31677;DHT22;18385;51.572;6.578;2022-07-29T00:38:41;22.60;38.90
31677;DHT22;18385;51.572;6.578;2022-07-29T00:41:11;22.60;38.90
31677;DHT22;18385;51.572;6.578;2022-07-29T00:43:37;22.60;39.00
31677;DHT22;18385;51.572;6.578;2022-07-29T00:46:02;22.60;39.10
31677;DHT22;18385;51.572;6.578;2022-07-29T00:48:28;22.50;39.10
31677;DHT22;18385;51.572;6.578;2022-07-29T00:50:55;22.50;39.20
31677;DHT22;18385;51.572;6.578;2022-07-29T00:53:23;22.40;39.20
31677;DHT22;18385;51.572;6.578;2022-07-29T00:55:50;22.40;39.30
31677;DHT22;18385;51.572;6.578;2022-07-29T00:58:16;22.40;39.30
31677;DHT22;18385;51.572;6.578;2022-07-29T01:00:42;22.30;39.40
31677;DHT22;18385;51.572;6.578;2022-07-29T01:03:08;22.30;39.50
31677;DHT22;18385;51.572;6.578;2022-07-29T01:05:34;22.30;39.50
31677;DHT22;18385;51.572;6.578;2022-07-29T01:08:01;22.30;39.60
31677;DHT22;18385;51.572;6.578;2022-07-29T01:10:27;22.30;39.70
31677;DHT22;18385;51.572;6.578;2022-07-29T01:12:56;22.20;39.60
31677;DHT22;18385;51.572;6.578;2022-07-29T01:15:23;22.30;39.80
31677;DHT22;18385;51.572;6.578;2022-07-29T01:18:14;22.20;39.80
31677;DHT22;18385;51.572;6.578;2022-07-29T01:23:46;22.10;40.00
31677;DHT22;18385;51.572;6.578;2022-07-29T01:29:28;22.00;40.20
31677;DHT22;18385;51.572;6.578;2022-07-29T01:32:03;22.00;40.30
31677;DHT22;18385;51.572;6.578;2022-07-29T01:39:52;22.10;40.40
31677;DHT22;18385;51.572;6.578;2022-07-29T01:44:57;22.10;40.10
31677;DHT22;18385;51.572;6.578;2022-07-29T01:47:26;22.00;40.40
31677;DHT22;18385;51.572;6.578;2022-07-29T01:49:56;21.90;40.40
31677;DHT22;18385;51.572;6.578;2022-07-29T01:55:13;21.80;40.60
31677;DHT22;18385;51.572;6.578;2022-07-29T01:57:44;21.80;40.80
31677;DHT22;18385;51.572;6.578;2022-07-29T02:00:11;21.70;40.80
31677;DHT22;18385;51.572;6.578;2022-07-29T02:02:40;21.70;41.00
31677;DHT22;18385;51.572;6.578;2022-07-29T02:05:07;21.70;41.00
31677;DHT22;18385;51.572;6.578;2022-07-29T02:07:37;21.70;41.10
31677;DHT22;18385;51.572;6.578;2022-07-29T02:10:04;21.70;41.20
31677;DHT22;18385;51.572;6.578;2022-07-29T02:12:32;21.80;41.20
31677;DHT22;18385;51.572;6.578;2022-07-29T02:15:01;21.80;41.20
31677;DHT22;18385;51.572;6.578;2022-07-29T02:17:35;21.80;41.30
31677;DHT22;18385;51.572;6.578;2022-07-29T02:20:05;21.80;41.30
31677;DHT22;18385;51.572;6.578;2022-07-29T02:22:33;21.70;41.20
31677;DHT22;18385;51.572;6.578;2022-07-29T02:25:01;21.60;41.30
31677;DHT22;18385;51.572;6.578;2022-07-29T02:27:28;21.50;41.60
31677;DHT22;18385;51.572;6.578;2022-07-29T02:29:57;21.40;41.70
31677;DHT22;18385;51.572;6.578;2022-07-29T02:32:26;21.30;41.90
31677;DHT22;18385;51.572;6.578;2022-07-29T02:34:52;21.30;42.10
31677;DHT22;18385;51.572;6.578;2022-07-29T02:37:19;21.20;42.00
31677;DHT22;18385;51.572;6.578;2022-07-29T02:39:47;21.30;42.20
31677;DHT22;18385;51.572;6.578;2022-07-29T02:42:16;21.20;42.30
31677;DHT22;18385;51.572;6.578;2022-07-29T02:44:42;21.20;42.40
31677;DHT22;18385;51.572;6.578;2022-07-29T02:50:15;21.10;42.50
31677;DHT22;18385;51.572;6.578;2022-07-29T02:53:07;20.90;42.70
31677;DHT22;18385;51.572;6.578;2022-07-29T02:56:24;20.80;42.80
31677;DHT22;18385;51.572;6.578;2022-07-29T02:58:49;20.70;43.20
31677;DHT22;18385;51.572;6.578;2022-07-29T03:01:22;20.60;43.50
31677;DHT22;18385;51.572;6.578;2022-07-29T03:03:49;20.50;43.60
31677;DHT22;18385;51.572;6.578;2022-07-29T03:06:17;20.50;43.70
31677;DHT22;18385;51.572;6.578;2022-07-29T03:08:44;20.50;43.90
31677;DHT22;18385;51.572;6.578;2022-07-29T03:11:11;20.50;44.10
31677;DHT22;18385;51.572;6.578;2022-07-29T03:13:38;20.50;44.10
31677;DHT22;18385;51.572;6.578;2022-07-29T03:16:05;20.50;44.20
31677;DHT22;18385;51.572;6.578;2022-07-29T03:18:32;20.60;44.30
31677;DHT22;18385;51.572;6.578;2022-07-29T03:20:58;20.60;44.30
31677;DHT22;18385;51.572;6.578;2022-07-29T03:23:24;20.60;44.30
31677;DHT22;18385;51.572;6.578;2022-07-29T03:25:51;20.60;44.40
31677;DHT22;18385;51.572;6.578;2022-07-29T03:28:17;20.70;44.40
31677;DHT22;18385;51.572;6.578;2022-07-29T03:30:43;20.60;44.50
31677;DHT22;18385;51.572;6.578;2022-07-29T03:33:08;20.60;44.50
31677;DHT22;18385;51.572;6.578;2022-07-29T03:35:34;20.60;44.60
31677;DHT22;18385;51.572;6.578;2022-07-29T03:38:00;20.60;44.70
31677;DHT22;18385;51.572;6.578;2022-07-29T03:40:42;20.70;44.70
31677;DHT22;18385;51.572;6.578;2022-07-29T03:43:11;20.70;44.90
31677;DHT22;18385;51.572;6.578;2022-07-29T03:45:39;20.70;44.90
31677;DHT22;18385;51.572;6.578;2022-07-29T03:48:10;20.70;44.90
31677;DHT22;18385;51.572;6.578;2022-07-29T03:50:38;20.70;44.90
31677;DHT22;18385;51.572;6.578;2022-07-29T03:53:03;20.70;45.00
31677;DHT22;18385;51.572;6.578;2022-07-29T03:55:33;20.70;45.10
31677;DHT22;18385;51.572;6.578;2022-07-29T03:58:02;20.70;45.20
31677;DHT22;18385;51.572;6.578;2022-07-29T04:00:29;20.70;45.30
31677;DHT22;18385;51.572;6.578;2022-07-29T04:02:56;20.70;45.30
31677;DHT22;18385;51.572;6.578;2022-07-29T04:05:22;20.70;45.40
31677;DHT22;18385;51.572;6.578;2022-07-29T04:07:48;20.80;45.50
31677;DHT22;18385;51.572;6.578;2022-07-29T04:10:15;20.80;45.70
31677;DHT22;18385;51.572;6.578;2022-07-29T04:12:41;20.90;45.70
31677;DHT22;18385;51.572;6.578;2022-07-29T04:15:07;20.90;45.80
31677;DHT22;18385;51.572;6.578;2022-07-29T04:17:33;20.90;45.90
31677;DHT22;18385;51.572;6.578;2022-07-29T04:19:59;20.90;46.20
31677;DHT22;18385;51.572;6.578;2022-07-29T04:22:25;20.90;46.40
31677;DHT22;18385;51.572;6.578;2022-07-29T04:24:51;20.80;46.40
31677;DHT22;18385;51.572;6.578;2022-07-29T04:27:16;20.80;46.60
31677;DHT22;18385;51.572;6.578;2022-07-29T04:29:42;20.80;46.60
31677;DHT22;18385;51.572;6.578;2022-07-29T04:32:08;20.80;46.70
31677;DHT22;18385;51.572;6.578;2022-07-29T04:34:33;20.80;46.90
31677;DHT22;18385;51.572;6.578;2022-07-29T04:36:59;20.70;47.10
31677;DHT22;18385;51.572;6.578;2022-07-29T04:39:25;20.70;47.30
31677;DHT22;18385;51.572;6.578;2022-07-29T04:41:51;20.70;47.30
31677;DHT22;18385;51.572;6.578;2022-07-29T04:44:17;20.70;47.40
31677;DHT22;18385;51.572;6.578;2022-07-29T04:46:42;20.60;47.40
31677;DHT22;18385;51.572;6.578;2022-07-29T04:49:08;20.60;47.50
31677;DHT22;18385;51.572;6.578;2022-07-29T04:51:34;20.40;47.50
31677;DHT22;18385;51.572;6.578;2022-07-29T04:54:00;20.40;47.80
31677;DHT22;18385;51.572;6.578;2022-07-29T04:56:26;20.20;47.90
31677;DHT22;18385;51.572;6.578;2022-07-29T04:58:52;19.80;48.00
31677;DHT22;18385;51.572;6.578;2022-07-29T05:01:18;19.50;48.50
31677;DHT22;18385;51.572;6.578;2022-07-29T05:03:44;19.10;49.10
31677;DHT22;18385;51.572;6.578;2022-07-29T05:06:10;18.80;49.60
31677;DHT22;18385;51.572;6.578;2022-07-29T05:08:37;18.60;50.10
31677;DHT22;18385;51.572;6.578;2022-07-29T05:11:02;18.50;50.50
31677;DHT22;18385;51.572;6.578;2022-07-29T05:13:28;18.50;50.90
31677;DHT22;18385;51.572;6.578;2022-07-29T05:15:54;18.30;51.00
31677;DHT22;18385;51.572;6.578;2022-07-29T05:18:20;18.30;51.20
31677;DHT22;18385;51.572;6.578;2022-07-29T05:20:46;18.20;51.40
31677;DHT22;18385;51.572;6.578;2022-07-29T05:23:12;18.10;51.60
31677;DHT22;18385;51.572;6.578;2022-07-29T05:25:41;18.10;51.80
31677;DHT22;18385;51.572;6.578;2022-07-29T05:28:07;18.20;52.00
31677;DHT22;18385;51.572;6.578;2022-07-29T05:30:32;18.20;52.10
31677;DHT22;18385;51.572;6.578;2022-07-29T05:32:58;18.30;52.20
31677;DHT22;18385;51.572;6.578;2022-07-29T05:35:24;18.30;52.20
31677;DHT22;18385;51.572;6.578;2022-07-29T05:37:49;18.30;52.30
31677;DHT22;18385;51.572;6.578;2022-07-29T05:40:15;18.30;52.40
31677;DHT22;18385;51.572;6.578;2022-07-29T05:42:41;18.40;52.60
31677;DHT22;18385;51.572;6.578;2022-07-29T05:45:07;18.40;52.70
31677;DHT22;18385;51.572;6.578;2022-07-29T05:47:34;18.50;52.80
31677;DHT22;18385;51.572;6.578;2022-07-29T05:49:59;18.50;53.40
31677;DHT22;18385;51.572;6.578;2022-07-29T05:52:25;18.50;52.80
31677;DHT22;18385;51.572;6.578;2022-07-29T05:54:51;18.50;52.80
31677;DHT22;18385;51.572;6.578;2022-07-29T05:57:22;18.40;53.00
31677;DHT22;18385;51.572;6.578;2022-07-29T05:59:49;18.40;53.20
31677;DHT22;18385;51.572;6.578;2022-07-29T06:02:15;18.30;53.10
31677;DHT22;18385;51.572;6.578;2022-07-29T06:04:41;18.30;53.30
31677;DHT22;18385;51.572;6.578;2022-07-29T06:07:07;18.40;53.50
31677;DHT22;18385;51.572;6.578;2022-07-29T06:09:33;18.50;53.60
31677;DHT22;18385;51.572;6.578;2022-07-29T06:11:59;18.50;53.60
31677;DHT22;18385;51.572;6.578;2022-07-29T06:14:25;18.50;53.60
31677;DHT22;18385;51.572;6.578;2022-07-29T06:16:52;18.60;53.80
31677;DHT22;18385;51.572;6.578;2022-07-29T06:19:18;18.70;53.90
31677;DHT22;18385;51.572;6.578;2022-07-29T06:21:45;18.90;54.00
31677;DHT22;18385;51.572;6.578;2022-07-29T06:24:13;19.00;54.10
31677;DHT22;18385;51.572;6.578;2022-07-29T06:26:42;19.20;54.20
31677;DHT22;18385;51.572;6.578;2022-07-29T06:29:08;19.20;54.20
31677;DHT22;18385;51.572;6.578;2022-07-29T06:31:36;19.30;54.00
31677;DHT22;18385;51.572;6.578;2022-07-29T06:34:03;19.30;54.00
31677;DHT22;18385;51.572;6.578;2022-07-29T06:36:29;19.40;54.20
31677;DHT22;18385;51.572;6.578;2022-07-29T06:38:54;19.40;54.20
31677;DHT22;18385;51.572;6.578;2022-07-29T06:41:20;19.50;54.20
31677;DHT22;18385;51.572;6.578;2022-07-29T06:43:46;19.60;54.20
31677;DHT22;18385;51.572;6.578;2022-07-29T06:46:14;19.70;54.30
31677;DHT22;18385;51.572;6.578;2022-07-29T06:48:40;19.80;54.30
31677;DHT22;18385;51.572;6.578;2022-07-29T06:51:08;19.90;54.20
31677;DHT22;18385;51.572;6.578;2022-07-29T06:53:35;19.90;54.20
31677;DHT22;18385;51.572;6.578;2022-07-29T06:56:02;19.90;54.80
31677;DHT22;18385;51.572;6.578;2022-07-29T06:58:29;19.90;54.20
31677;DHT22;18385;51.572;6.578;2022-07-29T07:00:56;19.80;54.20
31677;DHT22;18385;51.572;6.578;2022-07-29T07:03:22;19.70;54.20
31677;DHT22;18385;51.572;6.578;2022-07-29T07:05:48;19.60;54.40
31677;DHT22;18385;51.572;6.578;2022-07-29T07:08:14;19.60;54.50
31677;DHT22;18385;51.572;6.578;2022-07-29T07:10:42;19.60;55.20
31677;DHT22;18385;51.572;6.578;2022-07-29T07:13:08;19.60;54.80
31677;DHT22;18385;51.572;6.578;2022-07-29T07:15:34;19.60;54.90
31677;DHT22;18385;51.572;6.578;2022-07-29T07:18:00;19.60;55.00
31677;DHT22;18385;51.572;6.578;2022-07-29T07:20:26;19.60;55.20
31677;DHT22;18385;51.572;6.578;2022-07-29T07:22:52;19.60;55.30
31677;DHT22;18385;51.572;6.578;2022-07-29T07:25:17;19.50;55.40
31677;DHT22;18385;51.572;6.578;2022-07-29T07:27:44;19.50;55.40
31677;DHT22;18385;51.572;6.578;2022-07-29T07:30:10;19.50;55.60
31677;DHT22;18385;51.572;6.578;2022-07-29T07:32:36;19.50;55.80
31677;DHT22;18385;51.572;6.578;2022-07-29T07:35:04;19.60;55.80
31677;DHT22;18385;51.572;6.578;2022-07-29T07:37:30;19.60;56.00
31677;DHT22;18385;51.572;6.578;2022-07-29T07:39:56;19.70;55.90
31677;DHT22;18385;51.572;6.578;2022-07-29T07:42:22;19.80;55.90
31677;DHT22;18385;51.572;6.578;2022-07-29T07:44:47;19.80;56.10
31677;DHT22;18385;51.572;6.578;2022-07-29T07:47:14;19.80;56.10
31677;DHT22;18385;51.572;6.578;2022-07-29T07:49:52;19.80;56.20
31677;DHT22;18385;51.572;6.578;2022-07-29T07:52:19;19.70;56.10
31677;DHT22;18385;51.572;6.578;2022-07-29T07:54:45;19.60;56.00
31677;DHT22;18385;51.572;6.578;2022-07-29T07:57:11;19.40;56.30
31677;DHT22;18385;51.572;6.578;2022-07-29T07:59:37;19.40;56.60
31677;DHT22;18385;51.572;6.578;2022-07-29T08:02:03;19.50;56.90
31677;DHT22;18385;51.572;6.578;2022-07-29T08:04:29;19.50;56.80
31677;DHT22;18385;51.572;6.578;2022-07-29T08:06:56;19.40;56.60
31677;DHT22;18385;51.572;6.578;2022-07-29T08:09:23;19.50;56.80
31677;DHT22;18385;51.572;6.578;2022-07-29T08:11:48;19.50;56.70
31677;DHT22;18385;51.572;6.578;2022-07-29T08:14:14;19.40;56.70
31677;DHT22;18385;51.572;6.578;2022-07-29T08:16:40;19.30;56.80
31677;DHT22;18385;51.572;6.578;2022-07-29T08:19:07;19.30;57.10
31677;DHT22;18385;51.572;6.578;2022-07-29T08:21:33;19.40;57.10
31677;DHT22;18385;51.572;6.578;2022-07-29T08:23:59;19.40;57.20
31677;DHT22;18385;51.572;6.578;2022-07-29T08:26:43;19.50;57.40
31677;DHT22;18385;51.572;6.578;2022-07-29T08:29:09;19.60;57.40
31677;DHT22;18385;51.572;6.578;2022-07-29T08:31:35;19.70;57.20
31677;DHT22;18385;51.572;6.578;2022-07-29T08:34:02;19.70;57.30
31677;DHT22;18385;51.572;6.578;2022-07-29T08:36:29;19.80;57.30
31677;DHT22;18385;51.572;6.578;2022-07-29T08:38:54;19.90;57.20
31677;DHT22;18385;51.572;6.578;2022-07-29T08:41:21;20.00;57.20
31677;DHT22;18385;51.572;6.578;2022-07-29T08:43:47;20.00;57.20
31677;DHT22;18385;51.572;6.578;2022-07-29T08:46:14;20.00;57.20
31677;DHT22;18385;51.572;6.578;2022-07-29T08:48:41;19.90;57.20
31677;DHT22;18385;51.572;6.578;2022-07-29T08:51:07;20.00;57.50
31677;DHT22;18385;51.572;6.578;2022-07-29T08:53:33;20.00;57.50
31677;DHT22;18385;51.572;6.578;2022-07-29T08:56:00;20.00;57.60
31677;DHT22;18385;51.572;6.578;2022-07-29T08:58:31;20.10;57.70
31677;DHT22;18385;51.572;6.578;2022-07-29T09:01:01;20.10;57.70
31677;DHT22;18385;51.572;6.578;2022-07-29T09:03:31;20.10;57.80
31677;DHT22;18385;51.572;6.578;2022-07-29T09:05:59;20.10;57.80
31677;DHT22;18385;51.572;6.578;2022-07-29T09:08:25;20.30;57.80
31677;DHT22;18385;51.572;6.578;2022-07-29T09:10:51;20.40;57.90
31677;DHT22;18385;51.572;6.578;2022-07-29T09:13:17;20.50;57.80
31677;DHT22;18385;51.572;6.578;2022-07-29T09:15:44;20.60;57.70
31677;DHT22;18385;51.572;6.578;2022-07-29T09:18:10;20.60;57.60
31677;DHT22;18385;51.572;6.578;2022-07-29T09:20:36;20.70;57.50
31677;DHT22;18385;51.572;6.578;2022-07-29T09:23:20;20.70;57.50
31677;DHT22;18385;51.572;6.578;2022-07-29T09:25:46;20.70;57.60
31677;DHT22;18385;51.572;6.578;2022-07-29T09:28:16;20.80;57.80
31677;DHT22;18385;51.572;6.578;2022-07-29T09:30:56;20.80;57.80
31677;DHT22;18385;51.572;6.578;2022-07-29T09:33:23;20.80;57.80
31677;DHT22;18385;51.572;6.578;2022-07-29T09:36:18;20.80;57.80
31677;DHT22;18385;51.572;6.578;2022-07-29T09:38:59;20.90;57.80
31677;DHT22;18385;51.572;6.578;2022-07-29T09:41:27;20.90;57.60
31677;DHT22;18385;51.572;6.578;2022-07-29T09:43:59;20.90;57.60
31677;DHT22;18385;51.572;6.578;2022-07-29T09:46:25;20.90;57.80
31677;DHT22;18385;51.572;6.578;2022-07-29T09:49:10;20.90;57.70
31677;DHT22;18385;51.572;6.578;2022-07-29T09:51:36;21.00;57.80
31677;DHT22;18385;51.572;6.578;2022-07-29T09:54:04;21.00;58.40
31677;DHT22;18385;51.572;6.578;2022-07-29T09:56:46;21.10;57.70
31677;DHT22;18385;51.572;6.578;2022-07-29T09:59:13;21.20;57.70
31677;DHT22;18385;51.572;6.578;2022-07-29T10:01:39;21.30;57.60
31677;DHT22;18385;51.572;6.578;2022-07-29T10:04:05;21.50;58.20
31677;DHT22;18385;51.572;6.578;2022-07-29T10:06:31;21.70;57.40
31677;DHT22;18385;51.572;6.578;2022-07-29T10:09:12;21.70;57.10
31677;DHT22;18385;51.572;6.578;2022-07-29T10:11:37;21.70;57.10
31677;DHT22;18385;51.572;6.578;2022-07-29T10:14:03;21.80;57.10
31677;DHT22;18385;51.572;6.578;2022-07-29T10:16:30;21.80;57.10
31677;DHT22;18385;51.572;6.578;2022-07-29T10:19:01;21.80;57.60
31677;DHT22;18385;51.572;6.578;2022-07-29T10:21:27;21.80;56.80
31677;DHT22;18385;51.572;6.578;2022-07-29T10:23:53;21.60;56.80
31677;DHT22;18385;51.572;6.578;2022-07-29T10:26:22;21.40;57.10
31677;DHT22;18385;51.572;6.578;2022-07-29T10:28:48;21.40;57.60
31677;DHT22;18385;51.572;6.578;2022-07-29T10:31:24;21.50;57.60
31677;DHT22;18385;51.572;6.578;2022-07-29T10:33:56;21.60;57.70
31677;DHT22;18385;51.572;6.578;2022-07-29T10:36:50;21.70;57.70
31677;DHT22;18385;51.572;6.578;2022-07-29T10:42:20;21.80;57.40
31677;DHT22;18385;51.572;6.578;2022-07-29T10:44:48;21.90;57.30
31677;DHT22;18385;51.572;6.578;2022-07-29T10:47:25;21.90;57.40
31677;DHT22;18385;51.572;6.578;2022-07-29T10:50:02;22.10;57.30
31677;DHT22;18385;51.572;6.578;2022-07-29T10:52:52;22.20;57.00
31677;DHT22;18385;51.572;6.578;2022-07-29T10:55:44;22.20;56.90
31677;DHT22;18385;51.572;6.578;2022-07-29T10:58:17;22.40;56.90
31677;DHT22;18385;51.572;6.578;2022-07-29T11:00:43;22.50;56.70
31677;DHT22;18385;51.572;6.578;2022-07-29T11:03:09;22.70;56.60
31677;DHT22;18385;51.572;6.578;2022-07-29T11:05:55;22.90;56.40
31677;DHT22;18385;51.572;6.578;2022-07-29T11:08:22;23.10;55.80
31677;DHT22;18385;51.572;6.578;2022-07-29T11:10:51;23.10;55.80
31677;DHT22;18385;51.572;6.578;2022-07-29T11:13:46;23.30;55.70
31677;DHT22;18385;51.572;6.578;2022-07-29T11:16:12;23.50;55.50
31677;DHT22;18385;51.572;6.578;2022-07-29T11:21:41;23.80;55.10
31677;DHT22;18385;51.572;6.578;2022-07-29T11:24:19;24.00;55.10
31677;DHT22;18385;51.572;6.578;2022-07-29T11:27:05;24.20;54.70
31677;DHT22;18385;51.572;6.578;2022-07-29T11:29:31;24.30;55.10
31677;DHT22;18385;51.572;6.578;2022-07-29T11:32:09;24.40;54.40
31677;DHT22;18385;51.572;6.578;2022-07-29T11:34:36;24.60;54.10
31677;DHT22;18385;51.572;6.578;2022-07-29T11:45:09;25.40;53.00
31677;DHT22;18385;51.572;6.578;2022-07-29T11:47:38;25.50;52.60
31677;DHT22;18385;51.572;6.578;2022-07-29T11:50:07;25.70;52.40
31677;DHT22;18385;51.572;6.578;2022-07-29T11:52:34;25.80;52.20
31677;DHT22;18385;51.572;6.578;2022-07-29T11:55:03;25.90;52.80
31677;DHT22;18385;51.572;6.578;2022-07-29T11:57:29;26.00;53.00
31677;DHT22;18385;51.572;6.578;2022-07-29T11:59:57;26.10;52.80
31677;DHT22;18385;51.572;6.578;2022-07-29T12:02:23;26.30;51.50
31677;DHT22;18385;51.572;6.578;2022-07-29T12:04:55;26.30;51.10
31677;DHT22;18385;51.572;6.578;2022-07-29T12:07:32;26.20;50.70
31677;DHT22;18385;51.572;6.578;2022-07-29T12:09:58;26.10;51.10
31677;DHT22;18385;51.572;6.578;2022-07-29T12:12:24;26.20;51.10
31677;DHT22;18385;51.572;6.578;2022-07-29T12:14:50;26.40;50.70
31677;DHT22;18385;51.572;6.578;2022-07-29T12:17:30;26.60;50.50
31677;DHT22;18385;51.572;6.578;2022-07-29T12:19:58;26.80;50.00
31677;DHT22;18385;51.572;6.578;2022-07-29T12:22:39;26.80;49.80
31677;DHT22;18385;51.572;6.578;2022-07-29T12:25:08;26.80;49.60
31677;DHT22;18385;51.572;6.578;2022-07-29T12:27:36;26.80;49.40
31677;DHT22;18385;51.572;6.578;2022-07-29T12:30:16;26.90;49.40
31677;DHT22;18385;51.572;6.578;2022-07-29T12:32:47;26.80;48.90
31677;DHT22;18385;51.572;6.578;2022-07-29T12:35:18;26.90;49.10
31677;DHT22;18385;51.572;6.578;2022-07-29T12:37:46;26.70;48.60
31677;DHT22;18385;51.572;6.578;2022-07-29T12:40:17;26.60;48.90
31677;DHT22;18385;51.572;6.578;2022-07-29T12:43:09;26.40;48.90
31677;DHT22;18385;51.572;6.578;2022-07-29T12:45:38;26.50;49.00
31677;DHT22;18385;51.572;6.578;2022-07-29T12:48:06;26.50;48.90
31677;DHT22;18385;51.572;6.578;2022-07-29T12:50:53;26.60;48.80
31677;DHT22;18385;51.572;6.578;2022-07-29T12:53:19;26.50;48.40
31677;DHT22;18385;51.572;6.578;2022-07-29T12:55:48;26.50;48.50
31677;DHT22;18385;51.572;6.578;2022-07-29T12:58:46;26.70;48.30
31677;DHT22;18385;51.572;6.578;2022-07-29T13:01:14;26.80;48.20
31677;DHT22;18385;51.572;6.578;2022-07-29T13:03:42;26.90;48.00
31677;DHT22;18385;51.572;6.578;2022-07-29T13:06:31;27.00;48.40
31677;DHT22;18385;51.572;6.578;2022-07-29T13:09:03;26.90;47.80
31677;DHT22;18385;51.572;6.578;2022-07-29T13:11:33;27.00;47.80
31677;DHT22;18385;51.572;6.578;2022-07-29T13:13:59;27.30;48.30
31677;DHT22;18385;51.572;6.578;2022-07-29T13:16:25;27.40;47.50
31677;DHT22;18385;51.572;6.578;2022-07-29T13:19:04;27.60;47.30
31677;DHT22;18385;51.572;6.578;2022-07-29T13:21:29;27.90;47.00
31677;DHT22;18385;51.572;6.578;2022-07-29T13:23:55;28.10;46.90
31677;DHT22;18385;51.572;6.578;2022-07-29T13:26:21;28.30;46.70
31677;DHT22;18385;51.572;6.578;2022-07-29T13:28:46;28.40;46.20
31677;DHT22;18385;51.572;6.578;2022-07-29T13:31:12;28.50;46.20
31677;DHT22;18385;51.572;6.578;2022-07-29T13:33:38;28.60;46.10
31677;DHT22;18385;51.572;6.578;2022-07-29T13:36:04;28.80;45.80
31677;DHT22;18385;51.572;6.578;2022-07-29T13:38:29;29.00;45.50
31677;DHT22;18385;51.572;6.578;2022-07-29T13:40:55;29.10;45.50
31677;DHT22;18385;51.572;6.578;2022-07-29T13:43:21;29.40;45.30
31677;DHT22;18385;51.572;6.578;2022-07-29T13:45:47;29.70;45.00
31677;DHT22;18385;51.572;6.578;2022-07-29T13:48:12;29.70;44.50
31677;DHT22;18385;51.572;6.578;2022-07-29T13:50:38;29.80;44.10
31677;DHT22;18385;51.572;6.578;2022-07-29T13:53:04;29.90;44.20
31677;DHT22;18385;51.572;6.578;2022-07-29T13:55:30;30.10;44.20
31677;DHT22;18385;51.572;6.578;2022-07-29T13:57:56;30.70;44.30
31677;DHT22;18385;51.572;6.578;2022-07-29T14:00:21;31.30;43.20
31677;DHT22;18385;51.572;6.578;2022-07-29T14:02:49;31.80;43.10
31677;DHT22;18385;51.572;6.578;2022-07-29T14:05:14;32.60;42.30
31677;DHT22;18385;51.572;6.578;2022-07-29T14:07:40;32.90;41.30
31677;DHT22;18385;51.572;6.578;2022-07-29T14:10:06;32.90;40.70
31677;DHT22;18385;51.572;6.578;2022-07-29T14:12:32;33.20;40.20
31677;DHT22;18385;51.572;6.578;2022-07-29T14:14:58;32.90;39.20
31677;DHT22;18385;51.572;6.578;2022-07-29T14:17:24;32.20;39.20
31677;DHT22;18385;51.572;6.578;2022-07-29T14:19:49;31.70;39.90
31677;DHT22;18385;51.572;6.578;2022-07-29T14:22:15;31.50;40.20
31677;DHT22;18385;51.572;6.578;2022-07-29T14:24:41;31.70;40.10
31677;DHT22;18385;51.572;6.578;2022-07-29T14:27:07;31.80;39.70
31677;DHT22;18385;51.572;6.578;2022-07-29T14:29:33;31.90;39.40
31677;DHT22;18385;51.572;6.578;2022-07-29T14:31:59;32.60;40.10
31677;DHT22;18385;51.572;6.578;2022-07-29T14:34:24;34.00;39.20
31677;DHT22;18385;51.572;6.578;2022-07-29T14:36:50;35.00;38.70
31677;DHT22;18385;51.572;6.578;2022-07-29T14:39:16;35.90;36.90
31677;DHT22;18385;51.572;6.578;2022-07-29T14:41:42;36.50;36.20
31677;DHT22;18385;51.572;6.578;2022-07-29T14:44:08;36.80;35.70
31677;DHT22;18385;51.572;6.578;2022-07-29T14:46:34;37.20;34.80
31677;DHT22;18385;51.572;6.578;2022-07-29T14:49:00;37.30;33.60
31677;DHT22;18385;51.572;6.578;2022-07-29T14:51:26;36.90;33.50
31677;DHT22;18385;51.572;6.578;2022-07-29T14:53:52;37.40;33.80
31677;DHT22;18385;51.572;6.578;2022-07-29T14:56:18;37.90;33.10
31677;DHT22;18385;51.572;6.578;2022-07-29T14:58:44;38.30;32.20
31677;DHT22;18385;51.572;6.578;2022-07-29T15:01:09;38.40;31.70
31677;DHT22;18385;51.572;6.578;2022-07-29T15:03:35;38.60;31.40
31677;DHT22;18385;51.572;6.578;2022-07-29T15:06:01;38.90;31.00
31677;DHT22;18385;51.572;6.578;2022-07-29T15:08:27;38.90;29.90
31677;DHT22;18385;51.572;6.578;2022-07-29T15:10:55;38.80;30.30
31677;DHT22;18385;51.572;6.578;2022-07-29T15:13:23;39.30;30.00
31677;DHT22;18385;51.572;6.578;2022-07-29T15:15:48;39.40;29.50
31677;DHT22;18385;51.572;6.578;2022-07-29T15:18:15;39.70;28.90
31677;DHT22;18385;51.572;6.578;2022-07-29T15:20:41;39.80;28.60
31677;DHT22;18385;51.572;6.578;2022-07-29T15:23:06;40.00;28.40
31677;DHT22;18385;51.572;6.578;2022-07-29T15:25:34;40.40;28.30
31677;DHT22;18385;51.572;6.578;2022-07-29T15:28:02;40.50;27.70
31677;DHT22;18385;51.572;6.578;2022-07-29T15:30:30;40.60;27.40
31677;DHT22;18385;51.572;6.578;2022-07-29T15:32:56;40.40;27.00
31677;DHT22;18385;51.572;6.578;2022-07-29T15:35:21;40.40;27.10
31677;DHT22;18385;51.572;6.578;2022-07-29T15:37:47;40.50;26.70
31677;DHT22;18385;51.572;6.578;2022-07-29T15:40:13;40.40;26.30
31677;DHT22;18385;51.572;6.578;2022-07-29T15:42:38;40.40;26.20
31677;DHT22;18385;51.572;6.578;2022-07-29T15:45:04;40.40;26.00
31677;DHT22;18385;51.572;6.578;2022-07-29T15:47:30;40.60;26.20
31677;DHT22;18385;51.572;6.578;2022-07-29T15:49:56;41.00;25.60
31677;DHT22;18385;51.572;6.578;2022-07-29T15:52:22;41.10;25.20
31677;DHT22;18385;51.572;6.578;2022-07-29T15:54:48;41.00;24.90
31677;DHT22;18385;51.572;6.578;2022-07-29T15:57:14;41.10;25.10
31677;DHT22;18385;51.572;6.578;2022-07-29T15:59:39;41.30;24.70
31677;DHT22;18385;51.572;6.578;2022-07-29T16:02:05;41.20;24.40
31677;DHT22;18385;51.572;6.578;2022-07-29T16:04:31;41.20;24.40
31677;DHT22;18385;51.572;6.578;2022-07-29T16:06:57;41.40;24.10
31677;DHT22;18385;51.572;6.578;2022-07-29T16:09:23;41.30;23.70
31677;DHT22;18385;51.572;6.578;2022-07-29T16:11:49;41.40;23.60